Airfield :
LOGIN :

Register | Disclaimer

   EN    FR    IT 

 










Legend :    VFR   Marginal VFR   IFR   Intensive IFR   Very Intensive IFR
Visi :
Ceiling :
>= 8 km
>= 3000ft
5 to 8 km
1000 to 3000 ft
1500m to 5 km
500 to 1000 ft
800 to 1500m
200 to 500 ft
< 800m
< 200 ft
Symbols :   Thunderstorms  Fog  Heavy snow  Heavy precipitations  Wind > 20 kt
SIGMETs :     Misc.  Thunderstorms  Icing  Turbulence  Mountain Waves  Volcanic Ashes






- Airport Elevation : 209 ft
- IATA code : CLY


LFKC - Calvi

CURRENT METAR :
  • 080330Z AUTO VRB02KT 9999 -RA FEW048/// SCT062/// BKN078/// ///TCU 11/07 Q1005 TEMPO RA

EXPIRED METARs :
  • 080300Z AUTO VRB01KT 9999 BKN045/// BKN058/// BKN070/// ///TCU 11/08 Q1006
  • 080230Z AUTO VRB03KT 9999 BKN044 BKN050 BKN064 11/08 Q1007
  • 080200Z AUTO 20003KT 9999 -RA FEW050 BKN060 BKN076 12/07 Q1007
  • 080130Z AUTO 14003KT 110V180 9999 -RA BKN060 BKN070 BKN096 11/07 Q1008
  • 080100Z AUTO 17004KT 9999 FEW046/// BKN060/// OVC074/// ///TCU 11/06 Q1009

TAF AMD TAF LFKC
Valid from the 08 at 03:00 until the 09 at 03:00 UTC


080254Z 0803/0903 20010KT 9999 BKN045 BKN068 TX14/0812Z TN08/0821Z
TEMPO 0803/0810 RA FEW030TCU
TEMPO 0810/0816 21020G30KT 3000 TSRA BKN018 SCT035CB BKN060
TEMPO 0816/0822 22020G30KT SHRA SCT035TCU
PROB40
TEMPO 0819/0821 24020G35KT TSRA SCT035CB
BECMG 0822/0824 24015G30KT NSW BKN040
ATIS : +33 4 95 65 82 49



MET'MAP, your aeronautical weather chart ! - Copyright ORBIFLY December 2007 - Disclaimer

ORBIFLY MET'MAP TEAM :

Programming & Development : Alexandra Zaïnal
Concept & original design : Baudouin d'Aumeries
Assistance for programming : Marc-Olivier Méhu
Technical & hardware support : Manuel Goepfert

Contact : metmap@orbifly.com




SOURCES & CREDITS :

   NOAA